createdAt,value
2023-01-11T00:00:45.953Z,42.38
2023-01-11T00:01:45.930Z,43.51
2023-01-11T00:02:45.942Z,44.63
2023-01-11T00:03:45.913Z,44.31
2023-01-11T00:04:45.952Z,43.18
2023-01-11T00:05:45.916Z,49.95
2023-01-11T00:06:45.956Z,47.86
2023-01-11T00:07:45.891Z,51.72
2023-01-11T00:08:46.462Z,48.34
2023-01-11T00:09:45.870Z,47.21
2023-01-11T00:10:45.875Z,44.96
2023-01-11T00:11:45.860Z,43.51
2023-01-11T00:12:45.881Z,43.18
2023-01-11T00:13:45.875Z,43.34
2023-01-11T00:14:45.831Z,59.14
2023-01-11T00:15:45.849Z,49.31
2023-01-11T00:16:47.550Z,48.02
2023-01-11T00:17:45.819Z,43.99
2023-01-11T00:18:45.804Z,47.05
2023-01-11T00:19:45.800Z,44.15
2023-01-11T00:20:45.799Z,46.57
2023-01-11T00:21:45.786Z,46.57
2023-01-11T00:22:45.777Z,43.51
2023-01-11T00:23:45.762Z,44.15
2023-01-11T00:24:45.763Z,44.63
2023-01-11T00:27:45.848Z,43.99
2023-01-11T00:28:45.832Z,43.51
2023-01-11T00:29:45.820Z,43.34
2023-01-11T00:30:46.916Z,42.54
2023-01-11T00:31:46.912Z,51.56
2023-01-11T00:32:47.702Z,46.08
2023-01-11T00:33:48.700Z,42.38
2023-01-11T00:34:47.701Z,42.22
2023-01-11T00:35:46.873Z,43.02
2023-01-11T00:36:46.863Z,43.99
2023-01-11T00:37:46.854Z,50.60
2023-01-11T00:38:47.777Z,48.50
2023-01-11T00:39:46.832Z,42.86
2023-01-11T00:40:46.826Z,42.86
2023-01-11T00:41:46.814Z,42.54
2023-01-11T00:42:47.820Z,43.34
2023-01-11T00:43:46.796Z,45.12
2023-01-11T00:44:46.794Z,43.18
2023-01-11T00:45:46.816Z,50.76
2023-01-11T00:46:46.782Z,46.08
2023-01-11T00:47:46.781Z,46.08
2023-01-11T00:48:46.764Z,48.66
2023-01-11T00:49:46.759Z,46.73
2023-01-11T00:50:46.742Z,43.02
2023-01-11T00:51:46.749Z,41.89
2023-01-11T00:52:46.741Z,43.67
2023-01-11T00:53:46.718Z,45.92
2023-01-11T00:54:46.725Z,43.34
2023-01-11T00:55:46.706Z,47.70
2023-01-11T00:56:46.727Z,44.47
2023-01-11T00:57:47.294Z,42.38
2023-01-11T00:58:46.683Z,42.38
2023-01-11T00:59:47.672Z,45.76
2023-01-11T01:00:46.662Z,50.92
2023-01-11T01:01:46.668Z,43.18
2023-01-11T01:02:46.689Z,45.76
2023-01-11T01:03:46.647Z,47.37
2023-01-11T01:04:47.287Z,42.70
2023-01-11T01:05:46.658Z,44.15
2023-01-11T01:06:46.632Z,45.12
2023-01-11T01:07:46.617Z,44.31
2023-01-11T01:08:46.608Z,45.44
2023-01-11T01:09:46.591Z,43.18
2023-01-11T01:10:46.594Z,43.83
2023-01-11T01:11:46.578Z,47.53
2023-01-11T01:12:47.216Z,43.34
2023-01-11T01:13:46.570Z,48.18
2023-01-11T01:14:46.568Z,41.09
2023-01-11T01:15:46.609Z,42.06
2023-01-11T01:16:46.537Z,42.70
2023-01-11T01:17:46.529Z,50.92
2023-01-11T01:18:46.521Z,43.18
2023-01-11T01:19:46.804Z,43.02
2023-01-11T01:20:46.515Z,43.34
2023-01-11T01:21:46.504Z,42.38
2023-01-11T01:22:46.502Z,44.63
2023-01-11T01:23:46.483Z,43.02
2023-01-11T01:24:46.501Z,42.06
2023-01-11T01:25:46.465Z,46.57
2023-01-11T01:26:46.459Z,43.67
2023-01-11T01:27:46.457Z,44.79
2023-01-11T01:28:46.448Z,45.44
2023-01-11T01:29:46.449Z,41.25
2023-01-11T01:30:46.429Z,41.41
2023-01-11T01:31:46.426Z,46.57
2023-01-11T01:32:46.428Z,45.76
2023-01-11T01:33:46.403Z,53.01
2023-01-11T01:34:46.408Z,53.01
2023-01-11T01:35:46.394Z,52.53
2023-01-11T01:36:46.381Z,53.66
2023-01-11T01:37:46.376Z,53.50
2023-01-11T01:38:46.371Z,54.95
2023-01-11T01:39:46.363Z,53.50
2023-01-11T01:40:46.348Z,53.17
2023-01-11T01:43:52.622Z,53.66
2023-01-11T01:44:52.631Z,53.33
2023-01-11T01:45:52.616Z,53.50
2023-01-11T01:46:52.600Z,53.50
2023-01-11T01:47:52.591Z,53.17
2023-01-11T01:48:52.579Z,53.66
2023-01-11T01:49:52.578Z,53.17
2023-01-11T01:50:52.598Z,53.98
2023-01-11T01:51:52.570Z,54.46
2023-01-11T01:52:52.549Z,53.33
2023-01-11T01:53:52.543Z,54.62
2023-01-11T01:54:52.536Z,53.66
2023-01-11T01:55:53.000Z,54.79
2023-01-11T01:56:52.519Z,55.27
2023-01-11T01:57:54.582Z,50.76
2023-01-11T01:58:53.596Z,43.18
2023-01-11T01:59:53.593Z,44.79
2023-01-11T02:00:53.608Z,54.95
2023-01-11T02:01:53.608Z,50.92
2023-01-11T02:02:53.610Z,46.57
2023-01-11T02:03:53.554Z,44.31
2023-01-11T02:04:53.552Z,44.96
2023-01-11T02:05:53.561Z,47.86
2023-01-11T02:06:53.576Z,44.63
2023-01-11T02:07:53.520Z,43.99
2023-01-11T02:08:53.509Z,43.18
2023-01-11T02:09:53.508Z,47.05
2023-01-11T02:10:53.513Z,44.15
2023-01-11T02:11:53.497Z,43.51
2023-01-11T02:12:53.477Z,43.99
2023-01-11T02:13:53.484Z,43.83
2023-01-11T02:14:53.468Z,43.83
2023-01-11T02:15:53.489Z,45.44
2023-01-11T02:16:53.453Z,44.63
2023-01-11T02:17:53.452Z,43.99
2023-01-11T02:18:53.432Z,42.86
2023-01-11T02:19:53.422Z,42.54
2023-01-11T02:20:54.442Z,43.51
2023-01-11T02:21:53.415Z,45.28
2023-01-11T02:22:53.960Z,44.63
2023-01-11T02:23:53.992Z,44.31
2023-01-11T02:24:53.387Z,42.86
2023-01-11T02:25:54.000Z,45.92
2023-01-11T02:26:53.400Z,43.51
2023-01-11T02:27:53.363Z,42.06
2023-01-11T02:28:53.356Z,45.28
2023-01-11T02:29:53.585Z,45.12
2023-01-11T02:30:53.349Z,44.63
2023-01-11T02:31:53.993Z,42.22
2023-01-11T02:32:53.327Z,48.18
2023-01-11T02:33:53.312Z,44.15
2023-01-11T02:34:53.299Z,43.02
2023-01-11T02:35:53.302Z,42.22
2023-01-11T02:36:53.291Z,47.21
2023-01-11T02:37:53.285Z,44.31
2023-01-11T02:38:53.271Z,44.79
2023-01-11T02:39:53.269Z,46.25
2023-01-11T02:40:53.257Z,45.44
2023-01-11T02:41:53.241Z,43.34
2023-01-11T02:42:53.247Z,43.99
2023-01-11T02:43:53.223Z,45.12
2023-01-11T02:44:53.225Z,53.82
2023-01-11T02:45:53.236Z,43.67
2023-01-11T02:46:53.263Z,43.02
2023-01-11T02:47:53.205Z,46.08
2023-01-11T02:48:54.001Z,45.76
2023-01-11T02:49:54.081Z,48.66
2023-01-11T02:50:53.168Z,45.92
2023-01-11T02:51:53.156Z,47.05
2023-01-11T02:52:53.156Z,50.92
2023-01-11T02:53:53.135Z,45.60
2023-01-11T02:54:53.144Z,43.02
2023-01-11T02:55:53.117Z,45.28
2023-01-11T02:56:53.122Z,42.38
2023-01-11T02:57:53.121Z,46.73
2023-01-11T02:58:53.107Z,43.99
2023-01-11T02:59:53.085Z,54.14
2023-01-11T03:00:53.995Z,49.15
2023-01-11T03:01:53.232Z,48.66
2023-01-11T03:02:53.088Z,47.21
2023-01-11T03:03:53.062Z,43.67
2023-01-11T03:04:53.052Z,47.37
2023-01-11T03:05:53.051Z,43.99
2023-01-11T03:06:53.097Z,43.34
2023-01-11T03:07:53.030Z,44.15
2023-01-11T03:08:53.029Z,47.05
2023-01-11T03:09:53.011Z,52.37
2023-01-11T03:10:53.006Z,53.17
2023-01-11T03:11:52.991Z,43.18
2023-01-11T03:12:52.976Z,43.99
2023-01-11T03:13:52.989Z,55.75
2023-01-11T03:14:52.969Z,45.76
2023-01-11T03:15:52.963Z,44.15
2023-01-11T03:16:52.951Z,43.83
2023-01-11T03:17:52.944Z,49.47
2023-01-11T03:18:52.940Z,47.21
2023-01-11T03:19:53.928Z,50.92
2023-01-11T03:20:52.916Z,44.96
2023-01-11T03:21:52.920Z,44.79
2023-01-11T03:22:52.903Z,50.11
2023-01-11T03:23:52.940Z,44.96
2023-01-11T03:24:52.899Z,55.27
2023-01-11T03:25:52.872Z,49.95
2023-01-11T03:26:52.889Z,46.57
2023-01-11T03:27:52.871Z,47.53
2023-01-11T03:28:53.515Z,54.30
2023-01-11T03:29:52.853Z,51.88
2023-01-11T03:30:52.839Z,44.15
2023-01-11T03:31:52.832Z,49.79
2023-01-11T03:32:52.830Z,49.15
2023-01-11T03:33:52.837Z,47.53
2023-01-11T03:34:52.814Z,42.70
2023-01-11T03:35:52.793Z,45.12
2023-01-11T03:36:52.782Z,51.40
2023-01-11T03:37:52.779Z,44.15
2023-01-11T03:38:52.785Z,45.60
2023-01-11T03:39:52.776Z,45.12
2023-01-11T03:40:52.750Z,44.79
2023-01-11T03:41:52.761Z,49.63
2023-01-11T03:42:52.737Z,47.70
2023-01-11T03:43:52.724Z,46.08
2023-01-11T03:44:52.734Z,48.02
2023-01-11T03:45:53.589Z,48.02
2023-01-11T03:46:52.765Z,44.63
2023-01-11T03:47:52.693Z,45.44
2023-01-11T03:48:52.692Z,47.05
2023-01-11T03:49:52.694Z,45.76
2023-01-11T03:50:52.669Z,47.21
2023-01-11T03:51:52.664Z,45.60
2023-01-11T03:52:53.512Z,43.83
2023-01-11T03:53:52.646Z,47.05
2023-01-11T03:54:52.652Z,52.05
2023-01-11T03:55:52.645Z,57.85
2023-01-11T03:56:52.626Z,51.40
2023-01-11T03:57:52.616Z,48.02
2023-01-11T03:58:52.612Z,48.98
2023-01-11T03:59:52.608Z,45.12
2023-01-11T04:00:52.634Z,46.57
2023-01-11T04:01:52.599Z,54.30
2023-01-11T04:02:53.093Z,46.57
2023-01-11T04:03:52.684Z,48.66
2023-01-11T04:04:52.573Z,51.40
2023-01-11T04:05:52.569Z,46.89
2023-01-11T04:06:52.565Z,54.14
2023-01-11T04:07:54.081Z,52.85
2023-01-11T04:08:54.507Z,50.60
2023-01-11T04:09:52.681Z,60.26
2023-01-11T04:10:52.507Z,57.85
2023-01-11T04:11:52.507Z,50.11
2023-01-11T04:12:52.515Z,51.72
2023-01-11T04:13:52.496Z,51.72
2023-01-11T04:14:52.496Z,48.66
2023-01-11T04:15:52.512Z,50.43
2023-01-11T04:16:56.093Z,56.24
2023-01-11T04:17:54.090Z,49.15
2023-01-11T04:18:52.452Z,50.92
2023-01-11T04:19:52.449Z,60.10
2023-01-11T04:20:53.092Z,60.91
2023-01-11T04:21:52.430Z,58.65
2023-01-11T04:22:52.454Z,55.91
2023-01-11T04:23:54.094Z,53.17
2023-01-11T04:24:52.404Z,56.72
2023-01-11T04:25:54.093Z,56.24
2023-01-11T04:26:52.385Z,50.27
2023-01-11T04:27:52.399Z,50.43
2023-01-11T04:28:54.362Z,49.47
2023-01-11T04:29:53.363Z,55.43
2023-01-11T04:30:52.368Z,57.52
2023-01-11T04:31:52.398Z,58.49
2023-01-11T04:32:52.353Z,53.66
2023-01-11T04:33:52.334Z,59.78
2023-01-11T04:34:52.325Z,59.14
2023-01-11T04:35:52.322Z,59.46
2023-01-11T04:36:52.302Z,60.75
2023-01-11T04:37:52.293Z,60.75
2023-01-11T04:38:52.309Z,60.42
2023-01-11T04:39:52.302Z,62.52
2023-01-11T04:40:53.099Z,58.97
2023-01-11T04:41:52.263Z,54.46
2023-01-11T04:42:52.257Z,53.50
2023-01-11T04:43:52.256Z,57.69
2023-01-11T04:44:52.235Z,57.04
2023-01-11T04:45:52.252Z,53.98
2023-01-11T04:46:52.232Z,56.40
2023-01-11T04:47:52.217Z,53.17
2023-01-11T04:48:59.539Z,57.04
2023-01-11T04:49:53.022Z,54.30
2023-01-11T04:50:53.118Z,59.62
2023-01-11T04:51:52.181Z,59.14
2023-01-11T04:52:52.177Z,59.46
2023-01-11T04:53:52.171Z,51.72
2023-01-11T04:54:52.159Z,56.72
2023-01-11T04:55:52.146Z,53.17
2023-01-11T04:56:52.139Z,59.46
2023-01-11T04:57:52.133Z,55.43
2023-01-11T04:58:52.133Z,59.46
2023-01-11T04:59:52.122Z,56.07
2023-01-11T05:00:52.151Z,54.62
2023-01-11T05:01:52.118Z,59.30
2023-01-11T05:02:52.088Z,60.75
2023-01-11T05:03:52.165Z,55.75
2023-01-11T05:04:52.079Z,60.42
2023-01-11T05:05:52.075Z,60.91
2023-01-11T05:06:52.128Z,61.23
2023-01-11T05:07:52.050Z,59.46
2023-01-11T05:08:52.046Z,52.85
2023-01-11T05:09:52.045Z,61.39
2023-01-11T05:10:52.028Z,60.10
2023-01-11T05:11:52.017Z,60.26
2023-01-11T05:12:52.021Z,58.33
2023-01-11T05:13:52.015Z,56.24
2023-01-11T05:14:51.990Z,57.36
2023-01-11T05:15:51.990Z,57.36
2023-01-11T05:16:51.981Z,61.23
2023-01-11T05:17:51.981Z,61.23
2023-01-11T05:18:51.967Z,61.55
2023-01-11T05:19:55.651Z,61.55
2023-01-11T05:20:51.946Z,63.33
2023-01-11T05:21:51.947Z,56.24
2023-01-11T05:22:51.953Z,53.50
2023-01-11T05:23:55.539Z,59.46
2023-01-11T05:24:51.930Z,59.78
2023-01-11T05:25:52.523Z,61.07
2023-01-11T05:26:53.523Z,59.94
2023-01-11T05:27:53.108Z,57.36
2023-01-11T05:28:51.880Z,61.39
2023-01-11T05:29:51.888Z,60.75
2023-01-11T05:30:51.864Z,62.52
2023-01-11T05:31:51.872Z,63.65
2023-01-11T05:32:51.849Z,60.10
2023-01-11T05:33:51.834Z,61.23
2023-01-11T05:34:51.836Z,60.42
2023-01-11T05:35:54.451Z,57.52
2023-01-11T05:36:51.823Z,62.52
2023-01-11T05:37:51.810Z,63.16
2023-01-11T05:38:51.796Z,57.36
2023-01-11T05:39:51.786Z,60.59
2023-01-11T05:40:51.805Z,62.20
2023-01-11T05:41:51.779Z,60.10
2023-01-11T05:42:51.779Z,60.75
2023-01-11T05:43:51.760Z,60.75
2023-01-11T05:44:51.751Z,61.07
2023-01-11T05:45:51.755Z,61.07
2023-01-11T05:46:52.609Z,61.07
2023-01-11T05:47:51.725Z,59.94
2023-01-11T05:48:51.716Z,61.55
2023-01-11T05:49:51.702Z,61.23
2023-01-11T05:50:51.700Z,62.84
2023-01-11T05:51:52.559Z,61.07
2023-01-11T05:52:51.689Z,62.04
2023-01-11T05:53:51.779Z,59.78
2023-01-11T05:54:53.667Z,60.10
2023-01-11T05:55:53.609Z,60.75
2023-01-11T05:59:00.172Z,61.71
2023-01-11T06:00:01.260Z,63.00
2023-01-11T06:01:01.272Z,60.42
2023-01-11T06:02:01.309Z,61.07
2023-01-11T06:03:01.292Z,64.78
2023-01-11T06:04:01.226Z,60.59
2023-01-11T06:05:01.241Z,63.33
2023-01-11T06:06:01.211Z,60.59
2023-01-11T06:07:01.281Z,65.10
2023-01-11T06:08:01.199Z,67.68
2023-01-11T06:09:01.172Z,67.19
2023-01-11T06:10:02.199Z,64.29
2023-01-11T06:11:01.268Z,64.13
2023-01-11T06:12:01.163Z,63.16
2023-01-11T06:13:01.921Z,64.13
2023-01-11T06:14:01.594Z,64.78
2023-01-11T06:15:01.166Z,63.65
2023-01-11T06:16:01.133Z,60.75
2023-01-11T06:17:01.151Z,65.10
2023-01-11T06:18:01.119Z,60.42
2023-01-11T06:19:01.106Z,60.10
2023-01-11T06:20:01.102Z,64.94
2023-01-11T06:21:01.341Z,65.26
2023-01-11T06:22:01.092Z,63.97
2023-01-11T06:23:01.067Z,63.33
2023-01-11T06:24:01.089Z,63.49
2023-01-11T06:25:01.059Z,64.45
2023-01-11T06:26:01.051Z,63.49
2023-01-11T06:27:01.847Z,63.16
2023-01-11T06:28:01.139Z,65.58
2023-01-11T06:29:01.026Z,65.42
2023-01-11T06:30:01.067Z,65.58
2023-01-11T06:31:04.899Z,66.39
2023-01-11T06:32:01.013Z,64.94
2023-01-11T06:33:01.000Z,65.74
2023-01-11T06:34:00.989Z,62.84
2023-01-11T06:35:00.993Z,62.52
2023-01-11T06:36:00.970Z,65.26
2023-01-11T06:37:01.838Z,64.13
2023-01-11T06:38:03.005Z,63.65
2023-01-11T06:39:00.952Z,65.90
2023-01-11T06:40:00.957Z,63.33
2023-01-11T06:41:00.946Z,63.49
2023-01-11T06:42:00.928Z,63.00
2023-01-11T06:43:00.957Z,61.07
2023-01-11T06:44:00.911Z,60.26
2023-01-11T06:45:00.900Z,62.20
2023-01-11T06:46:00.919Z,63.00
2023-01-11T06:47:00.908Z,63.16
2023-01-11T06:48:00.882Z,60.10
2023-01-11T06:49:00.872Z,62.68
2023-01-11T06:50:00.878Z,65.58
2023-01-11T06:51:00.864Z,59.46
2023-01-11T06:52:00.901Z,62.68
2023-01-11T06:53:00.862Z,63.65
2023-01-11T06:54:01.440Z,62.36
2023-01-11T06:55:04.332Z,62.52
2023-01-11T06:56:06.407Z,65.26
2023-01-11T06:57:00.816Z,60.59
2023-01-11T06:58:00.797Z,61.71
2023-01-11T06:59:00.796Z,61.71
2023-01-11T07:00:01.348Z,60.91
2023-01-11T07:01:00.904Z,62.04
2023-01-11T07:02:00.817Z,61.55
2023-01-11T07:03:00.764Z,63.65
2023-01-11T07:04:00.785Z,65.42
2023-01-11T07:05:00.800Z,63.65
2023-01-11T07:06:00.731Z,62.68
2023-01-11T07:07:00.735Z,63.16
2023-01-11T07:08:00.737Z,65.10
2023-01-11T07:09:00.715Z,61.87
2023-01-11T07:10:00.700Z,63.16
2023-01-11T07:11:00.756Z,62.36
2023-01-11T07:12:00.688Z,65.10
2023-01-11T07:13:00.685Z,61.55
2023-01-11T07:14:00.675Z,64.13
2023-01-11T07:15:00.659Z,63.49
2023-01-11T07:16:00.764Z,68.96
2023-01-11T07:17:00.649Z,63.33
2023-01-11T07:18:00.634Z,64.94
2023-01-11T07:19:00.643Z,66.06
2023-01-11T07:20:05.329Z,66.39
2023-01-11T07:21:01.350Z,59.78
2023-01-11T07:22:00.612Z,62.04
2023-01-11T07:23:00.618Z,64.78
2023-01-11T07:24:00.613Z,63.49
2023-01-11T07:25:00.583Z,60.91
2023-01-11T07:26:00.692Z,60.59
2023-01-11T07:27:00.584Z,63.65
2023-01-11T07:28:00.578Z,62.04
2023-01-11T07:29:00.554Z,61.71
2023-01-11T07:30:02.432Z,65.42
2023-01-11T07:31:00.693Z,63.16
2023-01-11T07:32:00.537Z,61.39
2023-01-11T07:33:00.554Z,64.94
2023-01-11T07:34:00.515Z,63.65
2023-01-11T07:35:00.504Z,65.58
2023-01-11T07:36:00.534Z,65.74
2023-01-11T07:37:01.074Z,67.51
2023-01-11T07:38:00.516Z,66.71
2023-01-11T07:39:00.483Z,63.97
2023-01-11T07:40:01.421Z,62.36
2023-01-11T07:41:00.506Z,64.13
2023-01-11T07:42:00.460Z,63.65
2023-01-11T07:43:00.464Z,66.39
2023-01-11T07:44:00.450Z,66.71
2023-01-11T07:45:00.468Z,61.23
2023-01-11T07:46:00.509Z,63.65
2023-01-11T07:47:00.443Z,63.16
2023-01-11T07:48:00.418Z,65.74
2023-01-11T07:49:00.408Z,64.45
2023-01-11T07:50:00.413Z,68.64
2023-01-11T07:51:00.411Z,64.78
2023-01-11T07:52:00.393Z,64.13
2023-01-11T07:53:00.375Z,66.39
2023-01-11T07:54:00.365Z,66.23
2023-01-11T07:55:00.354Z,66.71
2023-01-11T07:56:00.354Z,65.58
2023-01-11T07:57:00.355Z,66.87
2023-01-11T07:58:00.367Z,66.71
2023-01-11T07:59:00.334Z,66.71
2023-01-11T08:00:00.859Z,68.48
2023-01-11T08:01:01.927Z,68.48
2023-01-11T08:02:00.316Z,64.78
2023-01-11T08:03:02.017Z,69.77
2023-01-11T08:04:01.297Z,68.00
2023-01-11T08:05:03.056Z,65.10
2023-01-11T08:06:01.286Z,65.90
2023-01-11T08:07:00.269Z,61.23
2023-01-11T08:08:00.282Z,61.55
2023-01-11T08:09:00.267Z,66.06
2023-01-11T08:10:00.239Z,61.71
2023-01-11T08:11:00.238Z,65.26
2023-01-11T08:12:00.249Z,63.16
2023-01-11T08:13:00.237Z,64.94
2023-01-11T08:14:00.221Z,65.26
2023-01-11T08:15:00.270Z,65.42
2023-01-11T08:16:00.343Z,67.68
2023-01-11T08:17:00.193Z,66.87
2023-01-11T08:18:00.193Z,64.45
2023-01-11T08:19:00.175Z,67.03
2023-01-11T08:20:00.857Z,65.10
2023-01-11T08:21:00.149Z,65.58
2023-01-11T08:22:00.145Z,68.48
2023-01-11T08:23:00.148Z,63.49
2023-01-11T08:24:00.135Z,66.71
2023-01-11T08:25:00.152Z,65.90
2023-01-11T08:26:00.129Z,64.13
2023-01-11T08:27:00.151Z,64.94
2023-01-11T08:28:00.133Z,60.75
2023-01-11T08:29:00.107Z,65.90
2023-01-11T08:30:00.105Z,60.75
2023-01-11T08:31:00.963Z,68.96
2023-01-11T08:32:00.083Z,66.55
2023-01-11T08:33:00.860Z,64.94
2023-01-11T08:34:00.048Z,61.87
2023-01-11T08:35:00.054Z,65.58
2023-01-11T08:36:00.058Z,66.39
2023-01-11T08:37:01.027Z,66.39
2023-01-11T08:38:00.025Z,66.06
2023-01-11T08:39:00.031Z,63.65
2023-01-11T08:40:00.032Z,62.68
2023-01-11T08:41:01.001Z,65.42
2023-01-11T08:41:59.993Z,66.39
2023-01-11T08:42:59.988Z,65.26
2023-01-11T08:43:59.974Z,64.45
2023-01-11T08:44:59.975Z,64.61
2023-01-11T08:46:00.082Z,66.71
2023-01-11T08:46:59.964Z,64.61
2023-01-11T08:47:59.952Z,65.10
2023-01-11T08:48:59.950Z,63.33
2023-01-11T08:49:59.936Z,68.16
2023-01-11T08:50:59.927Z,60.42
2023-01-11T08:51:59.945Z,67.19
2023-01-11T08:52:59.910Z,65.58
2023-01-11T08:53:59.928Z,66.39
2023-01-11T08:54:59.945Z,66.39
2023-01-11T08:55:59.901Z,68.48
2023-01-11T08:56:59.883Z,64.78
2023-01-11T08:57:59.879Z,64.45
2023-01-11T08:58:59.861Z,67.51
2023-01-11T08:59:59.857Z,64.94
2023-01-11T09:00:59.847Z,64.78
2023-01-11T09:01:59.947Z,63.33
2023-01-11T09:02:59.855Z,65.26
2023-01-11T09:03:59.826Z,60.91
2023-01-11T09:04:59.815Z,64.13
2023-01-11T09:05:59.819Z,62.04
2023-01-11T09:06:59.810Z,64.78
2023-01-11T09:07:59.829Z,65.90
2023-01-11T09:08:59.793Z,66.39
2023-01-11T09:09:59.785Z,61.23
2023-01-11T09:10:59.779Z,68.96
2023-01-11T09:11:59.783Z,64.45
2023-01-11T09:12:59.779Z,68.80
2023-01-11T09:13:59.741Z,66.39
2023-01-11T09:14:59.764Z,68.32
2023-01-11T09:15:59.753Z,63.81
2023-01-11T09:16:59.730Z,67.35
2023-01-11T09:17:59.718Z,63.49
2023-01-11T09:18:59.722Z,65.42
2023-01-11T09:19:59.699Z,64.61
2023-01-11T09:20:59.697Z,64.94
2023-01-11T09:21:59.737Z,64.29
2023-01-11T09:23:00.370Z,65.74
2023-01-11T09:23:59.671Z,66.55
2023-01-11T09:24:59.673Z,68.00
2023-01-11T09:25:59.680Z,67.68
2023-01-11T09:26:59.749Z,65.26
2023-01-11T09:27:59.649Z,66.71
2023-01-11T09:28:59.642Z,68.00
2023-01-11T09:29:59.630Z,66.23
2023-01-11T09:30:59.637Z,66.06
2023-01-11T09:31:59.602Z,66.87
2023-01-11T09:32:59.597Z,66.87
2023-01-11T09:33:59.599Z,65.90
2023-01-11T09:34:59.585Z,68.80
2023-01-11T09:38:06.423Z,67.51
2023-01-11T09:39:07.588Z,63.81
2023-01-11T09:40:07.488Z,65.58
2023-01-11T09:41:07.481Z,65.90
2023-01-11T09:42:07.492Z,67.68
2023-01-11T09:43:07.455Z,67.51
2023-01-11T09:44:08.469Z,67.84
2023-01-11T09:45:07.464Z,64.45
2023-01-11T09:46:08.620Z,62.84
2023-01-11T09:47:08.435Z,65.90
2023-01-11T09:48:07.458Z,67.03
2023-01-11T09:49:07.442Z,65.42
2023-01-11T09:50:08.361Z,67.68
2023-01-11T09:51:07.431Z,67.35
2023-01-11T09:52:07.397Z,64.13
2023-01-11T09:53:07.394Z,64.29
2023-01-11T09:54:07.387Z,65.42
2023-01-11T21:26:54.283Z,50.76
2023-01-11T21:27:55.332Z,56.56
2023-01-11T21:28:56.189Z,57.52
2023-01-11T21:29:55.305Z,61.71
2023-01-11T21:30:55.289Z,57.69
2023-01-11T21:31:56.080Z,59.94
2023-01-11T21:32:55.258Z,60.10
2023-01-11T21:33:57.167Z,53.17
2023-01-11T21:34:55.266Z,57.52
2023-01-11T21:35:55.253Z,56.24
2023-01-11T21:36:55.242Z,57.69
2023-01-11T21:37:55.231Z,55.11
2023-01-11T21:38:55.224Z,54.46
2023-01-11T21:39:55.219Z,51.72
2023-01-11T21:40:55.205Z,54.14
2023-01-11T21:41:55.216Z,55.43
2023-01-11T21:42:55.184Z,56.40
2023-01-11T21:43:56.189Z,57.04
2023-01-11T21:44:55.178Z,53.66
2023-01-11T21:45:55.173Z,55.91
2023-01-11T21:46:56.287Z,58.97
2023-01-11T21:47:57.090Z,53.50
2023-01-11T21:48:55.154Z,55.43
2023-01-11T21:49:55.133Z,51.08
2023-01-11T21:50:55.678Z,53.98
2023-01-11T21:51:55.122Z,56.40
2023-01-11T21:52:55.119Z,57.20
2023-01-11T21:53:55.107Z,53.98
2023-01-11T21:54:55.125Z,51.40
2023-01-11T21:55:55.086Z,53.01
2023-01-11T21:56:55.101Z,49.79
2023-01-11T21:57:55.076Z,53.82
2023-01-11T21:58:55.672Z,51.40
2023-01-11T21:59:55.060Z,54.95
2023-01-11T22:00:55.080Z,53.33
2023-01-11T22:01:55.052Z,45.12
2023-01-11T22:02:55.034Z,47.21
2023-01-11T22:03:55.040Z,48.82
2023-01-11T22:04:55.041Z,53.17
2023-01-11T22:05:55.013Z,47.21
2023-01-11T22:06:55.887Z,47.37
2023-01-11T22:07:54.991Z,56.72
2023-01-11T22:08:54.982Z,47.37
2023-01-11T22:10:04.545Z,48.66
2023-01-11T22:10:56.975Z,51.56
2023-01-11T22:11:54.971Z,56.40
2023-01-11T22:12:54.954Z,50.11
2023-01-11T22:13:55.019Z,54.79
2023-01-11T22:14:54.932Z,54.46
2023-01-11T22:15:54.947Z,49.79
2023-01-11T22:16:54.915Z,51.56
2023-01-11T22:17:56.596Z,51.72
2023-01-11T22:18:54.919Z,59.62
2023-01-11T22:19:56.681Z,49.63
2023-01-11T22:20:54.920Z,46.25
2023-01-11T22:21:59.612Z,54.95
2023-01-11T22:22:54.871Z,51.72
2023-01-11T22:23:56.685Z,48.50
2023-01-11T22:24:58.218Z,54.95
2023-01-11T22:25:54.845Z,58.01
2023-01-11T22:26:56.742Z,53.01
2023-01-11T22:27:54.889Z,49.79
2023-01-11T22:28:54.826Z,52.69
2023-01-11T22:30:31.715Z,51.40
2023-01-11T22:30:54.817Z,57.52
2023-01-11T22:31:55.756Z,54.30
2023-01-11T22:32:54.801Z,52.85
2023-01-11T22:33:54.780Z,49.79
2023-01-11T22:34:54.777Z,46.73
2023-01-11T22:35:54.775Z,49.47
2023-01-11T22:36:54.787Z,44.15
2023-01-11T22:37:54.756Z,50.60
2023-01-11T22:38:54.742Z,50.60
2023-01-11T22:39:54.735Z,48.98
2023-01-11T22:40:54.726Z,53.33
2023-01-11T22:41:54.716Z,44.63
2023-01-11T22:42:54.718Z,45.28
2023-01-11T22:43:54.701Z,48.34
2023-01-11T22:44:54.695Z,47.05
2023-01-11T22:45:54.794Z,49.31
2023-01-11T22:46:54.669Z,51.24
2023-01-11T22:47:54.664Z,44.63
2023-01-11T22:48:54.652Z,46.57
2023-01-11T22:49:54.658Z,50.60
2023-01-11T22:50:55.157Z,49.95
2023-01-11T22:51:54.629Z,47.53
2023-01-11T22:52:54.621Z,47.05
2023-01-11T22:53:54.734Z,53.50
2023-01-11T22:54:56.245Z,48.66
2023-01-11T22:55:54.599Z,47.70
2023-01-11T22:56:54.609Z,53.50
2023-01-11T22:57:56.213Z,53.50
2023-01-11T22:58:58.137Z,46.25
2023-01-11T22:59:54.577Z,53.01
2023-01-11T23:00:54.562Z,53.33
2023-01-11T23:01:54.552Z,51.40
2023-01-11T23:02:54.591Z,45.12
2023-01-11T23:03:54.601Z,48.66
2023-01-11T23:04:54.529Z,52.85
2023-01-11T23:05:54.523Z,46.89
2023-01-11T23:06:54.512Z,50.27
2023-01-11T23:07:54.504Z,54.30
2023-01-11T23:08:54.495Z,53.33
2023-01-11T23:09:54.492Z,53.01
2023-01-11T23:10:54.485Z,49.15
2023-01-11T23:11:54.471Z,48.82
2023-01-11T23:12:54.463Z,47.70
2023-01-11T23:13:54.471Z,57.52
2023-01-11T23:14:54.466Z,52.21
2023-01-11T23:15:54.464Z,46.57
2023-01-11T23:16:54.496Z,56.72
2023-01-11T23:17:54.428Z,55.91
2023-01-11T23:18:55.221Z,57.36
2023-01-11T23:19:54.434Z,53.50
2023-01-11T23:20:54.413Z,53.82
2023-01-11T23:21:56.136Z,57.36
2023-01-11T23:22:54.388Z,51.08
2023-01-11T23:23:55.219Z,49.95
2023-01-11T23:24:59.140Z,47.05
2023-01-11T23:25:54.386Z,50.76
2023-01-11T23:26:54.377Z,48.50
2023-01-11T23:27:54.358Z,44.79
2023-01-11T23:28:55.165Z,42.06
2023-01-11T23:29:54.354Z,45.44
2023-01-11T23:30:56.238Z,42.38
2023-01-11T23:31:54.395Z,45.60
2023-01-11T23:32:54.385Z,42.86
2023-01-11T23:33:54.331Z,44.31
2023-01-11T23:34:54.291Z,45.60
2023-01-11T23:35:54.294Z,48.34
2023-01-11T23:36:59.243Z,43.99
2023-01-11T23:37:54.263Z,43.18
2023-01-11T23:38:54.273Z,43.34
2023-01-11T23:39:54.252Z,49.31
2023-01-11T23:40:54.243Z,45.28
2023-01-11T23:41:54.243Z,46.08
2023-01-11T23:42:54.233Z,42.22
2023-01-11T23:43:55.244Z,42.22
2023-01-11T23:44:54.210Z,46.25
2023-01-11T23:45:54.302Z,44.96
2023-01-11T23:46:54.226Z,42.22
2023-01-11T23:47:54.190Z,42.38
2023-01-11T23:48:54.226Z,49.47
2023-01-11T23:49:54.263Z,48.66
2023-01-11T23:50:54.178Z,48.98
2023-01-11T23:51:54.210Z,41.25
2023-01-11T23:52:55.144Z,40.93
2023-01-11T23:53:54.193Z,43.83
2023-01-11T23:54:54.167Z,49.31
2023-01-11T23:55:54.125Z,45.92
2023-01-11T23:56:54.166Z,44.47
2023-01-11T23:57:54.110Z,45.28
2023-01-11T23:58:54.103Z,41.41
2023-01-11T23:59:54.110Z,42.06
